Time;durP1;ratioP1;P1;durP2;ratioP2;P2;SDS_P1;SDS_P2;PMS_P1;PMS_P2;Temp;Humidity;BMP_temperature;BMP_pressure;BME280_temperature;BME280_humidity;BME280_pressure;Samples;Min_cycle;Max_cycle;Signal;HPM_P1;HPM_P2
2023/07/26 00:00:30;;;;;;;2.97;0.95;;;12.60;99.90;;;;;;5054540;28;20044;-65
2023/07/26 00:02:56;;;;;;;5.90;1.10;;;12.60;99.90;;;;;;5070313;28;20220;-64
2023/07/26 00:05:21;;;;;;;3.63;1.15;;;12.70;99.90;;;;;;5043596;28;20972;-64
2023/07/26 00:07:47;;;;;;;4.65;0.95;;;12.60;99.90;;;;;;5056326;28;20120;-64
2023/07/26 00:10:13;;;;;;;3.80;1.48;;;12.60;99.90;;;;;;5055688;28;20040;-64
2023/07/26 00:12:38;;;;;;;6.55;1.63;;;12.70;99.90;;;;;;5022085;28;20040;-65
2023/07/26 00:15:05;;;;;;;3.85;1.23;;;12.70;99.90;;;;;;5056788;28;20037;-64
2023/07/26 00:17:30;;;;;;;5.10;1.63;;;12.60;99.90;;;;;;5068966;28;20379;-64
2023/07/26 00:19:56;;;;;;;4.53;1.30;;;12.60;99.90;;;;;;5056248;28;20267;-65
2023/07/26 00:22:22;;;;;;;4.25;1.23;;;12.70;99.90;;;;;;5056192;28;20044;-64
2023/07/26 00:24:48;;;;;;;4.65;1.10;;;12.70;99.90;;;;;;5055579;28;20056;-64
2023/07/26 00:27:16;;;;;;;4.03;1.92;;;12.60;99.90;;;;;;5040518;28;20276;-64
2023/07/26 00:29:42;;;;;;;7.20;1.13;;;12.60;99.90;;;;;;5041592;28;20378;-64
2023/07/26 00:32:08;;;;;;;5.10;1.52;;;12.60;99.90;;;;;;5055384;28;20032;-64
2023/07/26 00:34:35;;;;;;;4.50;1.40;;;12.60;99.90;;;;;;5055229;28;20286;-63
2023/07/26 00:37:03;;;;;;;3.00;1.00;;;12.60;99.90;;;;;;5061480;28;20480;-63
2023/07/26 00:39:30;;;;;;;5.35;1.45;;;12.50;99.90;;;;;;5054757;28;20140;-63
2023/07/26 00:41:55;;;;;;;4.05;1.27;;;12.50;99.90;;;;;;5037854;28;20044;-63
2023/07/26 00:44:21;;;;;;;9.18;1.50;;;12.60;99.90;;;;;;5042004;28;20316;-63
2023/07/26 00:46:47;;;;;;;5.63;1.33;;;12.60;99.90;;;;;;5055877;28;20166;-63
2023/07/26 00:49:13;;;;;;;6.00;1.42;;;12.70;99.90;;;;;;5039262;28;20043;-62
2023/07/26 00:51:40;;;;;;;4.85;1.15;;;12.70;99.90;;;;;;5055579;28;20048;-63
2023/07/26 00:54:07;;;;;;;5.68;1.20;;;12.60;99.90;;;;;;5072644;28;20061;-63
2023/07/26 00:56:34;;;;;;;3.47;1.13;;;12.60;99.90;;;;;;5037518;28;20048;-64
2023/07/26 00:59:00;;;;;;;5.70;1.10;;;12.70;99.90;;;;;;5054246;28;20637;-64
2023/07/26 01:01:27;;;;;;;5.07;0.90;;;12.80;99.90;;;;;;5055810;28;20059;-64
2023/07/26 01:03:53;;;;;;;5.10;1.10;;;12.70;99.90;;;;;;5042569;28;20355;-63
2023/07/26 01:06:41;;;;;;;5.07;1.20;;;12.70;99.90;;;;;;5055424;28;20174;-64
2023/07/26 01:09:45;;;;;;;4.65;0.80;;;12.70;99.90;;;;;;5054637;28;20040;-65
2023/07/26 01:12:19;;;;;;;5.82;1.20;;;12.70;99.90;;;;;;4974638;28;20351;-63
2023/07/26 01:14:58;;;;;;;6.10;0.93;;;12.70;99.90;;;;;;5057841;28;20135;-62
2023/07/26 01:17:24;;;;;;;5.15;1.45;;;12.70;99.90;;;;;;5054895;28;20044;-63
2023/07/26 01:19:50;;;;;;;7.38;1.30;;;12.60;99.90;;;;;;5054107;28;20230;-64
2023/07/26 01:22:15;;;;;;;6.75;1.00;;;12.60;99.90;;;;;;5054765;28;20052;-64
2023/07/26 01:24:41;;;;;;;5.60;1.27;;;12.60;99.90;;;;;;5056727;28;20066;-64
2023/07/26 01:27:07;;;;;;;4.85;1.20;;;12.50;99.90;;;;;;5037476;28;20047;-64
2023/07/26 01:29:33;;;;;;;5.43;1.00;;;12.50;99.90;;;;;;5053633;28;20764;-64
2023/07/26 01:31:59;;;;;;;6.00;0.93;;;12.50;99.90;;;;;;5053783;28;20481;-64
2023/07/26 01:34:25;;;;;;;9.15;1.33;;;12.50;99.90;;;;;;5041583;28;20044;-63
2023/07/26 01:36:52;;;;;;;4.68;1.00;;;12.40;99.90;;;;;;5053741;28;20536;-64
2023/07/26 01:39:18;;;;;;;7.07;1.05;;;12.40;99.90;;;;;;5042330;28;20276;-64
2023/07/26 01:41:46;;;;;;;5.50;1.13;;;12.30;99.90;;;;;;5073590;28;20131;-64
2023/07/26 01:44:15;;;;;;;6.13;1.10;;;12.30;99.90;;;;;;5053535;28;20047;-64
2023/07/26 01:46:41;;;;;;;5.05;0.95;;;12.30;99.90;;;;;;5043645;28;20300;-64
2023/07/26 01:49:06;;;;;;;5.53;0.82;;;12.30;99.90;;;;;;5036580;28;20036;-63
2023/07/26 01:51:32;;;;;;;3.92;1.00;;;12.20;99.90;;;;;;5053967;28;20036;-63
2023/07/26 01:53:58;;;;;;;2.78;0.95;;;12.20;99.90;;;;;;5036924;28;20056;-64
2023/07/26 01:56:24;;;;;;;4.97;1.10;;;12.10;99.90;;;;;;5053962;28;20232;-64
2023/07/26 01:58:50;;;;;;;11.77;1.42;;;12.10;99.90;;;;;;5053087;28;20738;-64
2023/07/26 02:01:15;;;;;;;5.72;1.05;;;12.20;99.90;;;;;;5052842;28;20035;-64
2023/07/26 02:03:41;;;;;;;4.65;1.30;;;12.10;99.90;;;;;;5056584;28;20138;-63
2023/07/26 02:06:07;;;;;;;7.10;1.58;;;12.10;99.90;;;;;;5072036;28;20498;-63
2023/07/26 02:08:32;;;;;;;8.00;1.45;;;12.10;99.90;;;;;;5052998;28;20041;-64
2023/07/26 02:10:58;;;;;;;7.05;1.50;;;12.20;99.90;;;;;;5036087;28;20228;-65
2023/07/26 02:13:24;;;;;;;8.15;1.40;;;12.20;99.90;;;;;;5036101;28;20466;-64
2023/07/26 02:15:50;;;;;;;8.85;1.30;;;12.20;99.90;;;;;;5053643;28;20051;-64
2023/07/26 02:18:15;;;;;;;5.85;1.45;;;12.10;99.90;;;;;;5054555;28;20037;-64
2023/07/26 02:20:41;;;;;;;9.40;1.55;;;12.00;99.90;;;;;;5053091;28;20079;-64
2023/07/26 02:23:07;;;;;;;6.43;1.30;;;11.90;99.90;;;;;;5053290;28;20425;-65
2023/07/26 02:25:32;;;;;;;9.85;1.80;;;11.90;99.90;;;;;;5052883;28;20036;-63
2023/07/26 02:27:59;;;;;;;5.50;1.73;;;11.80;99.90;;;;;;5037581;28;20436;-64
2023/07/26 02:30:25;;;;;;;8.82;2.15;;;11.90;99.90;;;;;;5053180;28;20446;-64
2023/07/26 02:32:51;;;;;;;6.07;1.83;;;11.70;99.90;;;;;;5052447;28;20734;-64
2023/07/26 02:35:17;;;;;;;10.30;2.17;;;11.80;99.90;;;;;;5052834;28;20272;-64
2023/07/26 02:37:43;;;;;;;8.63;2.00;;;11.60;99.90;;;;;;5053759;28;20052;-63
2023/07/26 02:40:09;;;;;;;8.77;2.28;;;11.70;99.90;;;;;;5054498;28;20565;-64
2023/07/26 02:42:35;;;;;;;8.40;2.63;;;11.50;99.90;;;;;;5036945;28;20327;-63
2023/07/26 02:45:01;;;;;;;9.63;2.55;;;11.50;99.90;;;;;;5036732;28;20040;-63
2023/07/26 02:47:32;;;;;;;6.20;2.38;;;11.50;99.90;;;;;;5069140;28;20040;-63
2023/07/26 02:50:01;;;;;;;5.10;2.10;;;11.50;99.90;;;;;;5056116;28;20742;-64
2023/07/26 02:52:27;;;;;;;6.28;2.60;;;11.40;99.90;;;;;;5041038;28;20414;-64
2023/07/26 02:54:53;;;;;;;6.35;2.85;;;11.60;99.90;;;;;;5034882;28;20545;-64
2023/07/26 02:57:19;;;;;;;7.80;2.83;;;11.40;99.90;;;;;;5052675;28;20126;-63
2023/07/26 02:59:45;;;;;;;5.25;2.78;;;11.40;99.90;;;;;;5053033;28;20052;-65
2023/07/26 03:02:10;;;;;;;7.82;3.03;;;11.50;99.90;;;;;;5052412;28;20044;-65
2023/07/26 03:04:36;;;;;;;8.07;2.85;;;11.50;99.90;;;;;;5039408;28;20496;-64
2023/07/26 03:07:02;;;;;;;7.03;2.80;;;11.40;99.90;;;;;;5041856;28;20043;-64
2023/07/26 03:09:27;;;;;;;7.47;2.30;;;11.40;99.90;;;;;;5052524;28;20430;-63
2023/07/26 03:11:53;;;;;;;7.88;3.22;;;11.50;99.90;;;;;;5033042;28;20566;-64
2023/07/26 03:14:19;;;;;;;7.15;2.40;;;11.60;99.90;;;;;;5052967;28;20450;-64
2023/07/26 03:16:44;;;;;;;8.63;2.55;;;11.60;99.90;;;;;;5075152;28;20036;-64
2023/07/26 03:19:10;;;;;;;5.88;2.70;;;11.50;99.90;;;;;;5052342;28;20097;-63
2023/07/26 03:21:35;;;;;;;6.43;2.63;;;11.50;99.90;;;;;;5054279;28;20434;-64
2023/07/26 03:24:01;;;;;;;8.82;3.03;;;11.60;99.90;;;;;;5035026;28;20109;-64
2023/07/26 03:26:27;;;;;;;7.68;2.60;;;11.60;99.90;;;;;;5054154;28;20505;-64
2023/07/26 03:28:53;;;;;;;11.70;3.03;;;11.50;99.90;;;;;;5036284;28;21385;-63
2023/07/26 03:31:18;;;;;;;8.18;2.60;;;11.50;99.90;;;;;;5051865;28;20039;-64
2023/07/26 03:33:44;;;;;;;10.68;2.53;;;11.70;99.90;;;;;;5047500;28;20229;-64
2023/07/26 03:36:10;;;;;;;10.95;3.10;;;11.70;99.90;;;;;;5054584;28;20143;-64
2023/07/26 03:38:35;;;;;;;7.50;3.08;;;11.80;99.90;;;;;;5035951;28;20037;-64
2023/07/26 03:41:01;;;;;;;10.38;2.50;;;11.70;99.90;;;;;;5051566;28;20040;-64
2023/07/26 03:43:27;;;;;;;8.55;2.90;;;11.80;99.90;;;;;;5015383;28;20571;-64
2023/07/26 03:45:52;;;;;;;6.85;2.55;;;11.80;99.90;;;;;;5035682;28;20036;-64
2023/07/26 03:48:18;;;;;;;7.28;2.58;;;11.80;99.90;;;;;;5054786;28;20522;-64
2023/07/26 03:50:44;;;;;;;8.35;2.30;;;11.90;99.90;;;;;;5051525;28;20145;-65
2023/07/26 03:53:09;;;;;;;6.65;2.10;;;11.80;99.90;;;;;;5053561;28;20040;-63
2023/07/26 03:55:35;;;;;;;7.78;2.10;;;11.80;99.90;;;;;;5051886;28;20477;-63
2023/07/26 03:58:01;;;;;;;8.13;2.33;;;12.00;99.90;;;;;;5037034;28;20044;-65
2023/07/26 04:00:26;;;;;;;7.43;2.38;;;12.00;99.90;;;;;;5051570;28;20048;-65
2023/07/26 04:02:55;;;;;;;5.63;2.15;;;12.00;99.90;;;;;;5052271;28;20132;-65
2023/07/26 04:05:21;;;;;;;4.55;1.63;;;12.20;99.90;;;;;;5069789;28;20077;-64
2023/07/26 04:07:47;;;;;;;7.57;2.00;;;12.10;99.90;;;;;;5055613;28;20066;-64
2023/07/26 04:10:13;;;;;;;8.02;2.05;;;12.20;99.90;;;;;;5053011;28;20044;-63
2023/07/26 04:12:39;;;;;;;5.75;2.20;;;12.10;99.90;;;;;;5040216;28;20024;-64
2023/07/26 04:15:05;;;;;;;7.60;1.75;;;12.20;99.90;;;;;;5054430;28;20545;-62
2023/07/26 04:17:31;;;;;;;6.13;2.15;;;12.30;99.90;;;;;;5051854;28;20644;-64
2023/07/26 04:19:56;;;;;;;6.50;2.05;;;12.20;99.90;;;;;;5053098;28;20036;-64
2023/07/26 04:22:22;;;;;;;6.60;2.30;;;12.40;99.90;;;;;;5034654;28;20048;-65
2023/07/26 04:24:47;;;;;;;6.85;2.03;;;12.20;99.90;;;;;;5019126;28;20063;-63
2023/07/26 04:27:13;;;;;;;4.03;1.88;;;12.30;99.90;;;;;;5052664;28;20103;-64
2023/07/26 04:29:41;;;;;;;8.07;2.50;;;12.40;99.90;;;;;;5051531;28;20040;-64
2023/07/26 04:32:07;;;;;;;10.27;3.00;;;12.40;99.90;;;;;;5051380;28;20403;-64
2023/07/26 04:34:34;;;;;;;4.75;2.13;;;12.30;99.90;;;;;;5054056;28;20366;-65
2023/07/26 04:36:59;;;;;;;4.55;1.90;;;12.40;99.90;;;;;;5041685;28;20335;-64
2023/07/26 04:39:25;;;;;;;6.75;2.17;;;12.30;99.90;;;;;;5056001;28;20115;-63
2023/07/26 04:41:51;;;;;;;3.47;1.80;;;12.20;99.90;;;;;;5054970;28;20051;-64
2023/07/26 04:44:17;;;;;;;7.70;2.28;;;12.30;99.90;;;;;;5056525;28;20123;-64
2023/07/26 04:46:42;;;;;;;4.35;1.95;;;12.20;99.90;;;;;;5055493;28;20399;-64
2023/07/26 04:49:08;;;;;;;5.68;2.20;;;12.10;99.90;;;;;;5054772;28;20105;-65
2023/07/26 04:51:34;;;;;;;8.45;2.63;;;12.20;99.90;;;;;;5043067;28;20044;-64
2023/07/26 04:53:59;;;;;;;7.20;2.47;;;12.10;99.90;;;;;;5054894;28;20052;-65
2023/07/26 04:56:26;;;;;;;6.10;2.17;;;12.20;99.90;;;;;;5038276;28;20396;-65
2023/07/26 04:58:52;;;;;;;6.88;2.75;;;12.20;99.90;;;;;;5057021;28;20542;-64
2023/07/26 05:01:19;;;;;;;7.70;3.20;;;12.10;99.90;;;;;;5056040;28;20389;-65
2023/07/26 05:03:45;;;;;;;4.72;2.25;;;12.20;99.90;;;;;;5045575;28;20048;-64
2023/07/26 05:06:11;;;;;;;5.47;2.40;;;12.10;99.90;;;;;;5042345;28;20602;-64
2023/07/26 05:08:37;;;;;;;6.55;2.95;;;12.10;99.90;;;;;;5039267;28;20546;-63
2023/07/26 05:11:03;;;;;;;6.97;2.70;;;12.00;99.90;;;;;;5044357;28;20050;-64
2023/07/26 05:13:28;;;;;;;5.43;2.63;;;12.00;99.90;;;;;;5055256;28;20047;-64
2023/07/26 05:15:54;;;;;;;4.60;2.30;;;12.10;99.90;;;;;;5055083;28;20094;-63
2023/07/26 05:18:20;;;;;;;6.38;2.53;;;12.10;99.90;;;;;;5038728;28;20047;-64
2023/07/26 05:20:50;;;;;;;6.75;2.85;;;12.00;99.90;;;;;;5055593;28;20072;-64
2023/07/26 05:23:16;;;;;;;6.38;2.88;;;12.00;99.90;;;;;;5056830;28;20045;-64
2023/07/26 05:25:42;;;;;;;5.28;2.83;;;12.00;99.90;;;;;;5033463;28;20240;-65
2023/07/26 05:28:08;;;;;;;8.02;3.20;;;12.00;99.90;;;;;;5054828;28;20036;-64
2023/07/26 05:30:41;;;;;;;8.15;3.13;;;12.20;99.90;;;;;;5057177;28;20073;-64
2023/07/26 05:33:08;;;;;;;7.35;2.78;;;12.20;99.90;;;;;;5050940;28;20490;-64
2023/07/26 05:35:33;;;;;;;6.72;3.03;;;12.20;99.90;;;;;;5052248;28;20106;-65
2023/07/26 05:37:59;;;;;;;6.28;2.80;;;12.20;99.90;;;;;;5053338;28;20052;-65
2023/07/26 05:40:25;;;;;;;5.35;2.53;;;12.30;99.90;;;;;;5053942;28;20052;-67
2023/07/26 05:42:50;;;;;;;7.05;2.97;;;12.40;99.90;;;;;;5053968;28;20144;-65
2023/07/26 05:45:16;;;;;;;8.20;3.28;;;12.30;99.90;;;;;;5055003;28;20044;-63
2023/07/26 05:47:43;;;;;;;5.88;2.88;;;12.40;99.90;;;;;;5054354;28;20098;-63
2023/07/26 05:50:10;;;;;;;6.00;2.75;;;12.70;99.90;;;;;;5056934;28;20202;-63
2023/07/26 05:52:36;;;;;;;7.07;3.10;;;12.80;99.90;;;;;;5054894;28;20145;-64
2023/07/26 05:55:02;;;;;;;4.97;2.22;;;13.20;99.90;;;;;;5054108;28;20443;-65
2023/07/26 05:57:28;;;;;;;5.13;2.40;;;13.40;99.90;;;;;;5054548;28;20024;-64
2023/07/26 05:59:54;;;;;;;8.13;3.05;;;13.50;99.90;;;;;;5054384;28;20620;-64
2023/07/26 06:02:19;;;;;;;6.95;2.35;;;13.70;99.90;;;;;;5039178;28;20057;-64
2023/07/26 06:04:47;;;;;;;6.32;2.75;;;13.70;99.90;;;;;;5054075;28;20043;-64
2023/07/26 06:07:13;;;;;;;4.90;2.53;;;13.90;99.90;;;;;;5052671;28;20537;-65
2023/07/26 06:09:38;;;;;;;6.68;2.50;;;14.00;99.90;;;;;;5052743;28;20041;-64
2023/07/26 06:12:05;;;;;;;3.83;2.60;;;14.00;99.90;;;;;;5053130;28;20399;-65
2023/07/26 06:14:30;;;;;;;4.82;2.35;;;14.10;99.90;;;;;;5054828;28;20151;-65
2023/07/26 06:16:58;;;;;;;5.68;2.17;;;14.20;99.90;;;;;;5051926;28;20042;-64
2023/07/26 06:19:23;;;;;;;3.85;2.45;;;14.40;99.90;;;;;;5039286;28;20040;-63
2023/07/26 06:21:50;;;;;;;6.53;2.67;;;14.70;99.90;;;;;;5053281;28;20153;-63
2023/07/26 06:24:16;;;;;;;3.40;1.90;;;14.90;99.90;;;;;;5036677;28;20070;-65
2023/07/26 06:26:41;;;;;;;5.82;2.38;;;14.90;99.90;;;;;;5053966;28;20049;-65
2023/07/26 06:29:07;;;;;;;5.63;2.53;;;15.00;99.90;;;;;;5032909;28;20466;-64
2023/07/26 06:31:33;;;;;;;5.53;2.90;;;15.30;99.90;;;;;;5052197;28;20048;-64
2023/07/26 06:33:59;;;;;;;5.88;2.90;;;15.00;99.90;;;;;;5074211;28;20031;-63
2023/07/26 06:36:24;;;;;;;5.75;2.42;;;14.90;99.90;;;;;;5039068;28;20106;-63
2023/07/26 06:38:50;;;;;;;2.75;1.77;;;14.80;99.90;;;;;;5037878;28;20104;-64
2023/07/26 06:41:16;;;;;;;3.30;1.60;;;14.70;99.90;;;;;;5053236;28;20342;-64
2023/07/26 06:43:41;;;;;;;5.97;1.67;;;14.30;99.90;;;;;;5053425;28;20174;-64
2023/07/26 06:46:07;;;;;;;5.35;2.33;;;14.30;99.90;;;;;;5066482;28;20560;-64
2023/07/26 06:48:32;;;;;;;5.22;1.50;;;14.10;99.90;;;;;;5041736;28;20066;-64
2023/07/26 06:51:01;;;;;;;5.90;1.73;;;13.80;99.90;;;;;;5054422;28;20047;-62
2023/07/26 06:53:27;;;;;;;4.25;2.08;;;13.60;99.90;;;;;;5052637;28;20068;-63
2023/07/26 06:55:57;;;;;;;6.18;2.42;;;13.50;99.90;;;;;;5053610;28;20049;-64
2023/07/26 06:58:23;;;;;;;5.18;2.33;;;13.40;99.90;;;;;;5055703;28;20043;-64
2023/07/26 07:00:48;;;;;;;4.05;2.33;;;13.40;99.90;;;;;;5019532;28;20045;-64
2023/07/26 07:03:14;;;;;;;4.88;1.70;;;13.50;99.90;;;;;;5041908;28;20267;-64
2023/07/26 07:05:40;;;;;;;5.07;1.75;;;13.40;99.90;;;;;;5037004;28;20087;-63
2023/07/26 07:08:05;;;;;;;4.32;2.15;;;13.60;99.90;;;;;;5042616;28;20139;-63
2023/07/26 07:10:31;;;;;;;5.65;2.17;;;13.40;99.90;;;;;;5042111;28;20578;-64
2023/07/26 07:12:57;;;;;;;5.75;2.30;;;13.60;99.90;;;;;;5054646;28;20044;-64
2023/07/26 07:15:23;;;;;;;6.28;2.40;;;13.50;99.90;;;;;;5033687;28;20101;-64
2023/07/26 07:17:48;;;;;;;7.45;2.40;;;13.80;99.90;;;;;;5052837;28;20052;-64
2023/07/26 07:20:14;;;;;;;5.20;2.13;;;14.10;99.90;;;;;;5054117;28;20482;-64
2023/07/26 07:22:40;;;;;;;3.22;1.55;;;14.80;99.90;;;;;;5051400;28;20415;-64
2023/07/26 07:25:06;;;;;;;4.57;1.60;;;15.20;99.90;;;;;;5050858;28;20458;-63
2023/07/26 07:27:33;;;;;;;3.42;1.70;;;15.70;99.90;;;;;;5052407;28;20044;-64
2023/07/26 07:29:59;;;;;;;5.47;1.33;;;16.00;99.90;;;;;;5031397;28;20067;-64
2023/07/26 07:32:25;;;;;;;3.35;1.40;;;16.20;99.90;;;;;;5037887;28;20179;-64
2023/07/26 07:34:51;;;;;;;3.83;1.42;;;16.60;99.90;;;;;;5039806;28;20047;-64
2023/07/26 07:37:17;;;;;;;2.97;1.27;;;16.40;99.90;;;;;;5042160;28;20044;-63
2023/07/26 07:39:42;;;;;;;2.17;1.00;;;16.50;99.90;;;;;;5053614;28;20075;-64
2023/07/26 07:42:08;;;;;;;7.50;1.50;;;16.40;99.90;;;;;;5024758;28;20616;-64
2023/07/26 07:44:34;;;;;;;3.17;0.98;;;16.40;99.90;;;;;;5020227;28;20445;-63
2023/07/26 07:47:00;;;;;;;3.67;1.08;;;16.50;99.90;;;;;;5040278;28;20406;-64
2023/07/26 07:49:28;;;;;;;1.85;0.50;;;16.80;99.90;;;;;;5051627;28;20045;-64
2023/07/26 07:51:53;;;;;;;1.20;0.50;;;16.90;99.90;;;;;;5053600;28;20273;-64
2023/07/26 07:54:20;;;;;;;1.85;0.70;;;16.60;99.90;;;;;;5034811;28;20175;-65
2023/07/26 07:56:48;;;;;;;2.05;0.60;;;16.60;99.90;;;;;;5048029;28;20166;-64
2023/07/26 07:59:13;;;;;;;2.15;0.68;;;16.90;99.90;;;;;;5055823;28;20095;-64
2023/07/26 08:01:39;;;;;;;1.48;0.63;;;17.10;99.90;;;;;;5038857;28;20566;-63
2023/07/26 08:04:05;;;;;;;1.73;0.60;;;17.20;99.90;;;;;;5038546;28;20040;-64
2023/07/26 08:06:32;;;;;;;1.80;0.70;;;17.30;99.90;;;;;;5035005;28;20109;-64
2023/07/26 08:08:58;;;;;;;4.82;0.80;;;17.50;99.90;;;;;;5036595;28;20123;-65
2023/07/26 08:11:24;;;;;;;2.75;0.80;;;17.50;99.90;;;;;;5053522;28;20044;-65
2023/07/26 08:13:49;;;;;;;2.55;0.80;;;17.40;99.90;;;;;;5039395;28;20036;-65
2023/07/26 08:16:15;;;;;;;7.78;0.82;;;17.50;99.90;;;;;;5038940;28;20473;-65
2023/07/26 08:18:41;;;;;;;1.50;0.50;;;17.80;99.90;;;;;;5055866;28;20121;-66
2023/07/26 08:21:07;;;;;;;12.75;1.48;;;18.00;99.90;;;;;;5055297;28;20159;-63
2023/07/26 08:23:32;;;;;;;1.83;0.60;;;18.20;99.90;;;;;;5044865;28;20116;-65
2023/07/26 08:26:05;;;;;;;1.63;0.60;;;18.20;99.90;;;;;;5055260;28;20040;-66
2023/07/26 08:28:32;;;;;;;1.35;0.50;;;18.20;99.90;;;;;;5054225;28;20082;-64
2023/07/26 08:30:58;;;;;;;0.93;0.40;;;18.10;99.90;;;;;;5055039;28;20765;-65
2023/07/26 08:33:24;;;;;;;1.13;0.40;;;17.90;99.90;;;;;;5057078;28;20044;-65
2023/07/26 08:35:49;;;;;;;2.00;0.50;;;17.70;99.90;;;;;;5054772;28;20036;-65
2023/07/26 08:38:15;;;;;;;1.20;0.40;;;17.80;99.90;;;;;;5054305;28;20329;-63
2023/07/26 08:40:49;;;;;;;1.63;0.43;;;17.70;99.90;;;;;;5054493;28;20111;-64
2023/07/26 08:43:18;;;;;;;2.90;0.40;;;17.50;99.90;;;;;;5059338;28;20203;-63
2023/07/26 08:45:45;;;;;;;1.65;0.50;;;17.40;99.90;;;;;;5069780;28;20419;-64
2023/07/26 08:48:11;;;;;;;1.48;0.40;;;17.30;99.90;;;;;;5053995;28;20041;-64
2023/07/26 08:50:41;;;;;;;1.05;0.40;;;17.30;99.90;;;;;;5055309;28;20032;-64
2023/07/26 08:53:07;;;;;;;0.95;0.30;;;17.50;99.90;;;;;;5057052;28;20094;-63
2023/07/26 08:55:34;;;;;;;1.77;0.28;;;17.70;99.90;;;;;;5058019;28;20055;-66
2023/07/26 08:58:00;;;;;;;0.63;0.30;;;17.90;99.90;;;;;;5042096;28;20040;-64
2023/07/26 09:00:29;;;;;;;1.00;0.30;;;17.90;99.90;;;;;;5041717;28;20047;-64
2023/07/26 09:03:01;;;;;;;1.13;0.30;;;18.00;99.90;;;;;;5057458;28;20059;-65
2023/07/26 09:05:26;;;;;;;5.28;0.50;;;17.90;99.90;;;;;;5055228;28;20528;-65
2023/07/26 09:07:52;;;;;;;5.15;0.50;;;17.90;99.90;;;;;;5055274;28;20131;-65
2023/07/26 09:10:30;;;;;;;1.10;0.30;;;17.80;99.90;;;;;;5039028;28;20076;-64
2023/07/26 09:13:13;;;;;;;1.70;0.40;;;17.80;99.90;;;;;;5053226;28;20040;-63
2023/07/26 09:15:41;;;;;;;0.82;0.40;;;18.00;99.90;;;;;;5071898;28;20051;-64
2023/07/26 09:18:08;;;;;;;2.20;0.60;;;18.30;99.90;;;;;;5071566;28;20334;-64
2023/07/26 09:20:35;;;;;;;11.00;1.05;;;18.60;99.90;;;;;;5052878;28;20498;-65
2023/07/26 09:23:05;;;;;;;0.88;0.40;;;19.10;99.90;;;;;;5052298;28;20399;-64
2023/07/26 09:25:45;;;;;;;1.05;0.40;;;19.50;99.90;;;;;;5035500;28;20359;-64
2023/07/26 09:28:15;;;;;;;1.83;0.50;;;19.20;90.60;;;;;;5071397;28;20044;-63
2023/07/26 09:30:45;;;;;;;0.68;0.30;;;19.10;96.30;;;;;;5037348;28;20132;-64
2023/07/26 09:33:12;;;;;;;1.63;0.50;;;18.70;99.90;;;;;;5036463;28;20040;-63
2023/07/26 09:35:48;;;;;;;1.38;0.40;;;18.70;99.90;;;;;;5051238;28;20047;-63
2023/07/26 09:38:17;;;;;;;1.30;0.40;;;18.60;99.90;;;;;;5052316;28;20063;-64
2023/07/26 09:40:44;;;;;;;1.92;0.40;;;18.30;99.90;;;;;;5052155;28;20218;-64
2023/07/26 09:43:10;;;;;;;1.40;0.50;;;18.30;99.90;;;;;;5051861;28;20048;-64
2023/07/26 09:45:38;;;;;;;1.60;0.50;;;18.30;99.90;;;;;;5051470;28;20207;-65
2023/07/26 09:48:11;;;;;;;0.82;0.40;;;18.40;99.90;;;;;;5052417;28;20503;-65
2023/07/26 09:50:39;;;;;;;0.98;0.50;;;18.20;99.90;;;;;;5036148;28;20331;-64
2023/07/26 09:53:06;;;;;;;1.92;0.50;;;18.00;99.90;;;;;;5070496;28;20087;-65
2023/07/26 09:55:34;;;;;;;1.00;0.50;;;18.00;99.90;;;;;;5087480;28;20056;-64
2023/07/26 09:58:01;;;;;;;0.93;0.47;;;18.10;99.90;;;;;;5071165;28;20328;-64
2023/07/26 10:00:29;;;;;;;1.67;0.70;;;18.40;99.90;;;;;;5068614;28;20354;-63
2023/07/26 10:03:06;;;;;;;4.45;1.13;;;18.50;99.90;;;;;;5070220;28;20055;-63
2023/07/26 10:05:42;;;;;;;3.47;0.70;;;18.50;99.90;;;;;;5070184;28;20032;-64
2023/07/26 10:08:12;;;;;;;1.38;0.50;;;18.80;99.90;;;;;;5070601;28;20272;-64
2023/07/26 10:10:41;;;;;;;2.35;0.73;;;19.10;85.20;;;;;;5071066;28;20502;-63
2023/07/26 10:13:09;;;;;;;3.45;0.80;;;19.50;91.30;;;;;;5068161;28;20032;-63
2023/07/26 10:15:36;;;;;;;1.83;0.77;;;19.50;71.00;;;;;;5058307;28;20043;-64
2023/07/26 10:18:02;;;;;;;1.73;0.60;;;19.30;81.00;;;;;;5069930;28;20060;-64
2023/07/26 10:20:28;;;;;;;1.90;0.60;;;19.00;77.20;;;;;;5068349;28;20469;-64
2023/07/26 10:23:00;;;;;;;2.13;1.05;;;18.90;94.70;;;;;;5073868;28;20033;-64
2023/07/26 10:25:26;;;;;;;4.13;1.02;;;19.10;96.50;;;;;;5074328;28;20047;-64
2023/07/26 10:27:52;;;;;;;4.53;1.25;;;19.30;81.10;;;;;;5071580;28;20055;-63
2023/07/26 10:30:18;;;;;;;5.22;0.88;;;19.60;59.80;;;;;;5073277;28;20036;-62
2023/07/26 10:32:50;;;;;;;16.77;2.65;;;20.00;66.80;;;;;;5071745;28;20509;-63
2023/07/26 10:35:36;;;;;;;7.25;1.52;;;20.40;69.40;;;;;;5063615;28;20387;-64
2023/07/26 10:41:29;;;;;;;3.10;0.88;;;20.50;24.90;;;;;;5073918;28;20167;-64
2023/07/26 10:44:09;;;;;;;2.00;0.70;;;20.10;29.70;;;;;;5077390;28;20423;-63
2023/07/26 10:46:53;;;;;;;6.10;0.98;;;19.70;23.60;;;;;;5068004;28;20041;-64
2023/07/26 10:49:30;;;;;;;2.42;0.70;;;19.20;48.80;;;;;;5069600;28;20052;-63
2023/07/26 10:52:02;;;;;;;1.95;0.65;;;18.90;51.20;;;;;;5087195;28;20043;-64
2023/07/26 10:54:51;;;;;;;2.45;0.95;;;18.40;91.90;;;;;;5087991;28;20135;-64
2023/07/26 10:57:18;;;;;;;4.57;0.60;;;17.60;99.90;;;;;;5085192;28;20052;-64
2023/07/26 11:00:10;;;;;;;3.60;0.57;;;15.30;99.90;;;;;;5071184;28;20119;-65
2023/07/26 11:02:58;;;;;;;1.85;0.80;;;13.40;99.90;;;;;;5085777;28;20527;-63
2023/07/26 11:05:29;;;;;;;4.93;1.00;;;12.90;99.90;;;;;;5086550;28;20405;-63
2023/07/26 11:07:58;;;;;;;4.50;1.33;;;12.70;99.90;;;;;;5059864;28;20114;-64
2023/07/26 11:10:38;;;;;;;4.72;1.88;;;12.70;99.90;;;;;;5084629;28;20513;-64
2023/07/26 11:13:07;;;;;;;4.82;1.80;;;13.10;99.90;;;;;;5072364;28;20036;-63
2023/07/26 11:15:35;;;;;;;5.00;2.47;;;13.30;99.90;;;;;;5070283;28;20048;-64
2023/07/26 11:21:43;;;;;;;5.30;3.38;;;13.30;99.90;;;;;;5072754;28;20081;-62
2023/07/26 11:24:11;;;;;;;6.57;3.67;;;13.60;99.90;;;;;;5078530;28;20035;-64
2023/07/26 11:26:47;;;;;;;6.68;3.42;;;13.50;99.90;;;;;;5073620;28;20044;-62
2023/07/26 11:29:13;;;;;;;7.30;4.03;;;14.10;99.90;;;;;;5071067;28;20040;-63
2023/07/26 11:31:40;;;;;;;4.80;3.47;;;14.40;99.90;;;;;;5092961;28;20040;-63
2023/07/26 11:34:21;;;;;;;6.13;3.80;;;14.10;99.90;;;;;;5090549;28;20040;-64
2023/07/26 11:36:47;;;;;;;6.18;3.30;;;14.60;99.90;;;;;;5068303;28;20037;-63
2023/07/26 11:39:24;;;;;;;5.10;3.58;;;15.20;99.90;;;;;;5052197;28;20051;-61
2023/07/26 11:41:51;;;;;;;4.45;2.80;;;15.50;99.90;;;;;;5072562;28;20044;-65
2023/07/26 11:44:21;;;;;;;5.35;2.72;;;15.90;99.90;;;;;;5070101;28;20452;-63
2023/07/26 11:46:47;;;;;;;3.92;2.15;;;16.20;99.90;;;;;;5083613;28;20056;-66
2023/07/26 11:49:20;;;;;;;2.53;1.40;;;17.60;99.90;;;;;;5059124;28;20032;-65
2023/07/26 11:52:11;;;;;;;3.45;1.60;;;17.00;99.90;;;;;;5074085;28;20037;-64
2023/07/26 11:54:53;;;;;;;4.00;1.63;;;17.80;99.90;;;;;;5072518;28;20045;-63
2023/07/26 11:57:20;;;;;;;1.77;0.90;;;17.40;99.90;;;;;;5094242;27;20499;-63
2023/07/26 11:59:48;;;;;;;4.00;1.00;;;17.10;99.90;;;;;;5077281;28;20123;-64
2023/07/26 12:09:33;;;;;;;1.40;0.63;;;17.90;99.90;;;;;;5072513;28;20080;-63
2023/07/26 12:12:00;;;;;;;4.47;0.52;;;17.90;99.90;;;;;;5091694;28;20105;-62
2023/07/26 12:14:31;;;;;;;3.45;0.52;;;18.60;99.90;;;;;;5074831;28;20074;-63
2023/07/26 12:16:57;;;;;;;3.55;0.60;;;18.90;99.90;;;;;;5091732;28;20070;-63
2023/07/26 12:19:26;;;;;;;2.17;0.40;;;18.90;99.90;;;;;;5091255;28;20059;-62
2023/07/26 12:21:52;;;;;;;1.48;0.20;;;18.90;99.90;;;;;;5063420;28;20056;-62
2023/07/26 12:24:19;;;;;;;2.13;0.30;;;19.40;99.90;;;;;;5057237;28;20038;-63
2023/07/26 12:27:23;;;;;;;1.30;0.20;;;19.80;99.90;;;;;;5073636;28;20174;-64
2023/07/26 12:29:49;;;;;;;3.63;0.30;;;19.80;99.90;;;;;;5073391;28;20048;-65
2023/07/26 12:32:15;;;;;;;4.40;0.40;;;20.50;99.90;;;;;;5075889;28;20036;-61
2023/07/26 12:34:42;;;;;;;11.95;1.65;;;20.40;99.90;;;;;;5075912;28;20036;-64
2023/07/26 12:37:09;;;;;;;10.98;0.93;;;20.10;99.90;;;;;;5076007;28;20127;-62
2023/07/26 12:39:37;;;;;;;2.70;0.20;;;20.40;99.90;;;;;;5074012;28;20120;-63
2023/07/26 12:42:03;;;;;;;2.53;0.30;;;20.40;99.90;;;;;;5073471;28;20115;-64
2023/07/26 12:44:47;;;;;;;3.67;0.30;;;20.40;99.90;;;;;;5091148;28;20131;-64
2023/07/26 12:47:13;;;;;;;1.52;0.30;;;20.50;99.90;;;;;;5072820;28;20071;-64
2023/07/26 12:53:21;;;;;;;2.05;0.30;;;21.00;99.90;;;;;;5074431;28;20082;-64
2023/07/26 12:55:47;;;;;;;1.60;0.20;;;21.40;53.50;;;;;;5072859;28;20056;-63
2023/07/26 12:58:14;;;;;;;0.98;0.20;;;21.60;99.90;;;;;;5071623;28;20391;-62
2023/07/26 13:00:41;;;;;;;1.95;0.30;;;21.60;82.60;;;;;;5070111;28;20036;-63
2023/07/26 13:03:07;;;;;;;0.80;0.20;;;21.70;24.40;;;;;;5072407;28;20025;-64
2023/07/26 13:05:33;;;;;;;1.35;0.28;;;21.90;93.00;;;;;;5073006;28;20040;-63